Terminal Aerodrome Forecast
Issued by NWS

Home | Current Version | Previous Version | Text Only | Print | Product List | Glossary On
Versions: 1 2 3 4 5 6 7 8 9 10 11 12 13 14 15 16 17 18 19 20 21 22 23 24 25 26 27 28 29 30 31 32 33 34 35 36 37 38 39 40 41 42 43 44 45 46 47 48 49 50
000
FTUS43 KDLH 270317 AAL
TAFBRD
TAF AMD
KBRD 270317Z 2703/2724 00000KT 2SM BR FEW008 BKN100
      TEMPO 2703/2707 1/2SM FG BKN003
     FM271000 00000KT 1/2SM FG BKN003
     FM271200 23002KT 3SM BR SCT006
     FM271700 25005KT P6SM FEW250=

USA.gov is the U.S. government's official web portal to all federal, state and local government web resources and services.